Time;durP1;ratioP1;P1;durP2;ratioP2;P2;SDS_P1;SDS_P2;PMS_P1;PMS_P2;Temp;Humidity;BMP_temperature;BMP_pressure;BME280_temperature;BME280_humidity;BME280_pressure;Samples;Min_cycle;Max_cycle;Signal;HPM_P1;HPM_P2
2023/01/19 00:00:31;;;;;;;6.30;0.90;;;3.40;99.90;;;;;;5004013;28;20421;-70
2023/01/19 00:02:57;;;;;;;7.63;1.40;;;2.70;99.90;;;;;;5007095;28;20457;-69
2023/01/19 00:05:22;;;;;;;4.17;0.60;;;3.40;99.90;;;;;;5006005;28;20427;-69
2023/01/19 00:07:48;;;;;;;4.53;0.67;;;2.80;99.90;;;;;;5007194;28;20440;-72
2023/01/19 00:10:14;;;;;;;3.10;0.80;;;3.40;99.90;;;;;;5039562;28;20416;-69
2023/01/19 00:12:39;;;;;;;6.00;0.80;;;2.70;99.90;;;;;;5011556;28;20441;-70
2023/01/19 00:15:06;;;;;;;4.68;0.63;;;3.30;99.90;;;;;;5001638;28;20417;-70
2023/01/19 00:17:31;;;;;;;5.07;1.00;;;3.10;99.90;;;;;;5008741;28;20811;-70
2023/01/19 00:19:57;;;;;;;5.00;0.70;;;3.30;99.90;;;;;;5008218;28;20431;-70
2023/01/19 00:22:23;;;;;;;4.87;1.03;;;2.50;99.90;;;;;;5004095;28;20436;-69
2023/01/19 00:24:49;;;;;;;6.47;1.93;;;2.50;99.90;;;;;;5009782;28;20515;-71
2023/01/19 00:27:14;;;;;;;11.93;1.10;;;3.90;99.90;;;;;;5009090;28;20425;-69
2023/01/19 00:29:40;;;;;;;5.03;0.80;;;4.00;99.90;;;;;;5000217;28;21229;-70
2023/01/19 00:32:06;;;;;;;6.80;2.00;;;2.80;99.90;;;;;;5007113;28;20416;-71
2023/01/19 00:34:41;;;;;;;6.30;0.83;;;3.40;99.90;;;;;;5006032;28;20792;-69
2023/01/19 00:37:10;;;;;;;7.70;1.42;;;2.90;99.90;;;;;;5008147;28;20451;-70
2023/01/19 00:39:36;;;;;;;10.03;1.30;;;3.60;99.90;;;;;;5006999;28;20835;-71
2023/01/19 00:44:46;;;;;;;7.07;0.90;;;3.20;99.90;;;;;;5020763;28;20528;-70
2023/01/19 00:47:12;;;;;;;6.55;1.40;;;3.40;99.90;;;;;;5023328;28;20527;-69
2023/01/19 00:49:37;;;;;;;9.73;1.77;;;3.40;99.90;;;;;;5033438;28;20774;-72
2023/01/19 00:52:03;;;;;;;8.45;1.35;;;3.70;99.90;;;;;;4998023;28;20895;-70
2023/01/19 00:54:29;;;;;;;5.43;1.25;;;3.40;99.90;;;;;;5021929;28;20428;-70
2023/01/19 00:56:55;;;;;;;5.73;1.80;;;3.00;99.90;;;;;;5007840;28;20428;-69
2023/01/19 00:59:20;;;;;;;7.00;1.50;;;4.10;99.90;;;;;;5008010;28;20756;-70
2023/01/19 01:01:46;;;;;;;7.53;1.00;;;2.90;99.90;;;;;;4998521;28;20433;-69
2023/01/19 01:04:13;;;;;;;7.63;1.38;;;3.80;99.90;;;;;;5001842;28;20441;-70
2023/01/19 01:06:38;;;;;;;8.40;1.27;;;3.40;99.90;;;;;;5007595;28;20443;-69
2023/01/19 01:09:10;;;;;;;6.78;1.20;;;3.00;99.90;;;;;;5006194;28;20445;-69
2023/01/19 01:11:40;;;;;;;9.25;1.27;;;3.00;99.90;;;;;;5007352;28;20907;-71
2023/01/19 01:14:07;;;;;;;8.30;1.27;;;3.60;99.90;;;;;;5005136;28;20422;-71
2023/01/19 01:16:32;;;;;;;7.72;1.10;;;3.90;99.90;;;;;;5000918;28;20428;-70
2023/01/19 01:18:58;;;;;;;7.23;1.40;;;3.80;99.90;;;;;;4996332;28;20905;-69
2023/01/19 01:21:24;;;;;;;9.43;1.42;;;3.70;99.90;;;;;;5005666;28;20411;-69
2023/01/19 01:23:49;;;;;;;8.95;1.42;;;3.10;99.90;;;;;;5021680;28;20437;-70
2023/01/19 01:26:15;;;;;;;10.45;2.25;;;4.00;99.90;;;;;;5003470;28;20423;-69
2023/01/19 01:28:41;;;;;;;6.38;2.17;;;3.20;99.90;;;;;;5007099;28;20428;-71
2023/01/19 01:31:06;;;;;;;6.40;1.30;;;3.90;99.90;;;;;;5007802;28;20432;-70
2023/01/19 01:33:32;;;;;;;8.10;0.95;;;3.90;99.90;;;;;;5006053;28;20429;-69
2023/01/19 01:35:58;;;;;;;6.82;0.82;;;3.90;99.90;;;;;;5002869;28;20447;-70
2023/01/19 01:38:23;;;;;;;9.13;1.42;;;3.40;99.90;;;;;;5007826;28;20449;-69
2023/01/19 01:40:49;;;;;;;6.68;1.10;;;3.20;99.90;;;;;;5007249;28;20432;-70
2023/01/19 01:43:17;;;;;;;7.17;0.73;;;3.80;99.90;;;;;;5003219;28;20461;-70
2023/01/19 01:45:43;;;;;;;4.57;0.90;;;3.10;99.90;;;;;;5006083;28;20431;-70
2023/01/19 01:48:29;;;;;;;4.97;0.80;;;3.90;99.90;;;;;;5002812;28;20436;-70
2023/01/19 01:51:23;;;;;;;7.72;0.82;;;3.90;99.90;;;;;;5022431;28;20491;-71
2023/01/19 01:54:05;;;;;;;9.18;1.10;;;3.40;99.90;;;;;;5000545;28;20468;-70
2023/01/19 01:56:43;;;;;;;7.78;0.85;;;4.00;99.90;;;;;;5038797;28;20435;-69
2023/01/19 01:59:24;;;;;;;9.20;1.98;;;3.20;99.90;;;;;;5007194;28;20413;-68
2023/01/19 02:05:04;;;;;;;8.90;1.40;;;3.50;99.90;;;;;;5006605;28;20419;-70
2023/01/19 02:13:19;;;;;;;5.50;1.40;;;3.50;99.90;;;;;;5013903;28;20425;-70
2023/01/19 02:15:46;;;;;;;9.00;1.15;;;3.80;99.90;;;;;;4999217;28;20428;-69
2023/01/19 02:18:12;;;;;;;4.43;0.90;;;3.70;99.90;;;;;;5000491;28;20473;-71
2023/01/19 02:20:41;;;;;;;8.18;1.80;;;3.30;99.90;;;;;;5006931;28;20461;-69
2023/01/19 02:23:18;;;;;;;6.72;1.05;;;3.30;99.90;;;;;;5006950;28;20508;-70
2023/01/19 02:25:45;;;;;;;6.22;1.30;;;4.00;99.90;;;;;;5010894;28;20423;-70
2023/01/19 02:28:11;;;;;;;4.68;0.70;;;3.70;99.90;;;;;;5010224;28;20436;-70
2023/01/19 02:30:39;;;;;;;6.07;1.40;;;4.20;99.90;;;;;;5042797;28;20456;-71
2023/01/19 02:33:06;;;;;;;6.43;1.20;;;4.00;99.90;;;;;;5007325;28;20756;-70
2023/01/19 02:35:33;;;;;;;3.53;0.80;;;4.00;99.90;;;;;;5004141;28;20411;-69
2023/01/19 02:38:01;;;;;;;3.90;0.90;;;3.60;99.90;;;;;;5045320;28;20439;-70
2023/01/19 02:40:27;;;;;;;5.45;1.20;;;3.30;99.90;;;;;;5014529;28;20515;-69
2023/01/19 02:42:59;;;;;;;5.55;1.45;;;4.00;99.90;;;;;;5009066;28;20571;-69
2023/01/19 02:45:25;;;;;;;3.75;0.80;;;3.70;99.90;;;;;;5003172;28;20419;-71
2023/01/19 02:47:52;;;;;;;4.95;0.95;;;4.00;99.90;;;;;;4998629;28;20530;-70
2023/01/19 02:50:42;;;;;;;3.00;1.00;;;3.10;99.90;;;;;;5024753;28;20455;-70
2023/01/19 02:53:32;;;;;;;2.63;0.73;;;3.50;99.90;;;;;;5007144;28;20435;-70
2023/01/19 02:56:02;;;;;;;9.07;1.45;;;3.50;99.90;;;;;;5006740;28;20479;-70
2023/01/19 02:58:39;;;;;;;3.70;0.80;;;3.90;99.90;;;;;;5009686;28;20428;-70
2023/01/19 03:01:20;;;;;;;4.93;0.80;;;3.00;99.90;;;;;;5007932;28;20436;-70
2023/01/19 03:04:13;;;;;;;6.15;0.90;;;5.10;99.90;;;;;;5007255;28;20480;-69
2023/01/19 03:06:45;;;;;;;5.38;1.10;;;3.10;99.90;;;;;;5007025;28;20436;-71
2023/01/19 03:09:27;;;;;;;5.20;1.20;;;3.50;99.90;;;;;;5008723;28;20424;-70
2023/01/19 03:12:08;;;;;;;6.00;1.02;;;3.00;99.90;;;;;;5008081;28;20420;-70
2023/01/19 03:14:40;;;;;;;4.43;1.35;;;3.10;99.90;;;;;;5001043;28;21105;-70
2023/01/19 03:17:09;;;;;;;4.85;1.40;;;3.20;99.90;;;;;;5017265;28;20434;-70
2023/01/19 03:19:39;;;;;;;5.00;1.30;;;3.10;99.90;;;;;;5006489;28;20412;-71
2023/01/19 03:22:09;;;;;;;5.15;0.57;;;3.80;99.90;;;;;;5009046;28;20428;-70
2023/01/19 03:24:39;;;;;;;4.90;0.70;;;3.80;99.90;;;;;;5007060;28;20461;-70
2023/01/19 03:27:13;;;;;;;3.13;0.60;;;3.60;99.90;;;;;;5009764;28;20908;-70
2023/01/19 03:29:44;;;;;;;6.35;0.88;;;3.30;99.90;;;;;;5003818;28;20811;-71
2023/01/19 03:32:14;;;;;;;5.72;1.38;;;3.80;99.90;;;;;;5008785;28;20428;-71
2023/01/19 03:34:41;;;;;;;7.23;0.63;;;4.00;99.90;;;;;;5037442;28;21561;-70
2023/01/19 03:37:10;;;;;;;2.83;0.50;;;3.30;99.90;;;;;;5009801;28;20510;-70
2023/01/19 03:39:36;;;;;;;5.63;0.80;;;3.20;99.90;;;;;;5005239;28;20516;-71
2023/01/19 03:42:08;;;;;;;5.35;1.00;;;3.30;99.90;;;;;;5007808;28;20464;-70
2023/01/19 03:44:36;;;;;;;4.20;0.50;;;3.90;99.90;;;;;;5010840;28;20467;-70
2023/01/19 03:47:04;;;;;;;3.95;0.55;;;4.00;99.90;;;;;;4992458;28;20790;-70
2023/01/19 03:49:31;;;;;;;4.72;0.80;;;3.30;99.90;;;;;;5002908;28;20796;-70
2023/01/19 03:51:58;;;;;;;5.47;1.33;;;3.30;99.90;;;;;;4998308;28;20432;-70
2023/01/19 03:54:24;;;;;;;6.60;1.60;;;4.00;99.90;;;;;;5020724;28;21091;-70
2023/01/19 03:56:51;;;;;;;6.47;0.90;;;3.90;99.90;;;;;;5008375;28;20460;-69
2023/01/19 03:59:18;;;;;;;6.75;0.77;;;3.20;99.90;;;;;;5023186;28;20468;-70
2023/01/19 04:01:45;;;;;;;4.63;0.57;;;3.80;99.90;;;;;;5035684;28;20469;-69
2023/01/19 04:04:12;;;;;;;8.80;1.35;;;3.50;99.90;;;;;;4998953;28;20417;-70
2023/01/19 04:06:38;;;;;;;6.85;0.85;;;4.00;99.90;;;;;;4995434;28;20492;-70
2023/01/19 04:09:04;;;;;;;8.75;1.50;;;3.20;99.90;;;;;;5009204;28;20413;-70
2023/01/19 04:11:30;;;;;;;7.03;1.20;;;3.90;99.90;;;;;;5008849;28;20436;-70
2023/01/19 04:13:56;;;;;;;7.53;2.20;;;3.20;99.90;;;;;;4989020;28;20442;-70
2023/01/19 04:16:22;;;;;;;7.63;1.52;;;3.70;99.90;;;;;;5007500;28;20432;-71
2023/01/19 04:18:48;;;;;;;9.65;1.27;;;3.90;99.90;;;;;;5007401;28;20571;-70
2023/01/19 04:21:14;;;;;;;9.00;1.00;;;3.90;99.90;;;;;;5005169;28;20444;-70
2023/01/19 04:23:40;;;;;;;7.68;1.10;;;3.90;99.90;;;;;;5013871;28;20797;-70
2023/01/19 04:26:07;;;;;;;7.05;1.00;;;4.00;99.90;;;;;;5015804;28;20430;-71
2023/01/19 04:28:35;;;;;;;6.55;1.33;;;3.80;99.90;;;;;;5005671;28;20434;-70
2023/01/19 04:31:02;;;;;;;7.90;1.60;;;3.40;99.90;;;;;;5006198;28;20950;-70
2023/01/19 04:33:28;;;;;;;10.55;1.25;;;4.00;99.90;;;;;;5020858;28;20437;-70
2023/01/19 04:35:54;;;;;;;11.15;1.40;;;4.10;99.90;;;;;;5022193;28;20435;-70
2023/01/19 04:38:21;;;;;;;9.63;1.60;;;4.00;99.90;;;;;;5008265;28;20428;-70
2023/01/19 04:40:49;;;;;;;8.95;1.65;;;4.40;99.90;;;;;;5006019;28;20452;-70
2023/01/19 04:43:15;;;;;;;8.85;1.25;;;3.50;99.90;;;;;;5006177;28;20433;-69
2023/01/19 04:45:42;;;;;;;8.60;1.60;;;3.60;99.90;;;;;;4997641;28;20777;-70
2023/01/19 04:48:08;;;;;;;5.70;1.30;;;3.90;99.90;;;;;;4999381;28;20445;-71
2023/01/19 04:50:34;;;;;;;5.70;0.82;;;3.70;99.90;;;;;;4998099;28;20424;-70
2023/01/19 04:53:00;;;;;;;13.38;1.70;;;4.00;99.90;;;;;;5008849;28;20432;-70
2023/01/19 04:55:26;;;;;;;7.07;0.88;;;4.30;99.90;;;;;;5004309;28;20429;-70
2023/01/19 04:57:53;;;;;;;5.65;0.80;;;4.60;99.90;;;;;;4996780;28;20430;-69
2023/01/19 05:00:19;;;;;;;5.68;0.95;;;3.60;99.90;;;;;;4994670;28;20432;-68
2023/01/19 05:02:45;;;;;;;7.63;0.80;;;3.70;99.90;;;;;;5005349;28;20471;-70
2023/01/19 05:05:11;;;;;;;6.10;0.52;;;4.10;99.90;;;;;;5007313;28;20421;-70
2023/01/19 05:07:37;;;;;;;6.33;0.60;;;4.20;99.90;;;;;;5037948;28;20919;-70
2023/01/19 05:10:04;;;;;;;4.03;0.80;;;3.60;99.90;;;;;;5007507;28;20511;-69
2023/01/19 05:12:30;;;;;;;3.13;0.93;;;3.90;99.90;;;;;;4998041;28;20433;-71
2023/01/19 05:14:55;;;;;;;6.13;1.08;;;3.90;99.90;;;;;;5001321;28;20419;-70
2023/01/19 05:17:21;;;;;;;4.60;0.77;;;3.90;99.90;;;;;;5007336;28;20436;-70
2023/01/19 05:19:47;;;;;;;4.37;0.70;;;5.20;99.90;;;;;;4998160;28;20490;-71
2023/01/19 05:22:13;;;;;;;3.80;0.60;;;3.70;99.90;;;;;;5001029;28;20426;-70
2023/01/19 05:24:39;;;;;;;7.38;1.63;;;4.00;99.90;;;;;;4997953;28;20544;-70
2023/01/19 05:27:05;;;;;;;7.70;1.15;;;3.60;99.90;;;;;;5005055;28;20447;-69
2023/01/19 05:29:30;;;;;;;4.97;0.80;;;4.30;99.90;;;;;;5004374;28;20902;-70
2023/01/19 05:31:57;;;;;;;8.70;1.55;;;3.40;99.90;;;;;;5016340;28;20435;-69
2023/01/19 05:34:22;;;;;;;8.18;1.50;;;3.40;99.90;;;;;;5010721;28;20433;-69
2023/01/19 05:36:48;;;;;;;8.60;1.27;;;3.50;99.90;;;;;;5000666;28;20438;-69
2023/01/19 05:39:14;;;;;;;5.10;0.73;;;3.80;99.90;;;;;;5002608;28;20429;-69
2023/01/19 05:41:40;;;;;;;12.32;2.63;;;3.50;99.90;;;;;;5035591;28;20436;-70
2023/01/19 05:44:07;;;;;;;11.18;1.80;;;4.30;99.90;;;;;;4998221;28;20511;-69
2023/01/19 05:46:33;;;;;;;6.63;1.17;;;4.70;99.90;;;;;;5005840;28;20436;-69
2023/01/19 05:49:02;;;;;;;10.77;2.20;;;3.20;99.90;;;;;;5002666;28;20461;-70
2023/01/19 05:51:33;;;;;;;7.78;1.65;;;3.70;99.90;;;;;;5029763;28;20546;-69
2023/01/19 05:54:00;;;;;;;7.13;2.28;;;3.60;99.90;;;;;;4995937;28;20416;-70
2023/01/19 05:56:25;;;;;;;13.82;2.13;;;3.50;99.90;;;;;;5004132;28;20432;-70
2023/01/19 05:58:51;;;;;;;6.17;1.07;;;3.10;99.90;;;;;;5003904;28;20428;-70
2023/01/19 06:01:17;;;;;;;10.00;1.47;;;3.30;99.90;;;;;;5016369;28;21005;-69
2023/01/19 06:03:43;;;;;;;12.80;1.80;;;5.60;99.90;;;;;;5005608;28;20938;-70
2023/01/19 06:06:09;;;;;;;8.82;1.48;;;3.50;99.90;;;;;;5013433;28;20434;-69
2023/01/19 06:08:34;;;;;;;8.23;1.45;;;3.10;99.90;;;;;;5052243;28;21009;-70
2023/01/19 06:11:00;;;;;;;8.57;2.05;;;3.40;99.90;;;;;;5006885;28;20544;-70
2023/01/19 06:13:26;;;;;;;8.00;2.00;;;3.00;99.90;;;;;;5026213;28;20453;-70
2023/01/19 06:16:02;;;;;;;7.57;1.60;;;3.40;99.90;;;;;;5008150;28;20469;-70
2023/01/19 06:18:28;;;;;;;9.93;2.20;;;3.30;99.90;;;;;;5009387;28;20424;-70
2023/01/19 06:20:57;;;;;;;12.73;2.42;;;3.30;99.90;;;;;;5010044;28;20452;-70
2023/01/19 06:23:24;;;;;;;12.52;2.25;;;3.80;99.90;;;;;;5029899;28;20436;-69
2023/01/19 06:25:51;;;;;;;8.30;1.80;;;3.60;99.90;;;;;;5026786;28;20858;-69
2023/01/19 06:28:16;;;;;;;9.00;1.85;;;4.20;99.90;;;;;;5005671;28;20428;-69
2023/01/19 06:30:44;;;;;;;11.97;1.77;;;3.40;99.90;;;;;;4984791;28;20832;-69
2023/01/19 06:33:10;;;;;;;8.48;1.85;;;3.50;99.90;;;;;;5009096;28;20815;-70
2023/01/19 06:35:36;;;;;;;10.57;2.38;;;4.20;99.90;;;;;;5004827;28;20422;-70
2023/01/19 06:38:01;;;;;;;13.75;1.77;;;3.50;99.90;;;;;;5007328;28;20491;-69
2023/01/19 06:40:27;;;;;;;11.13;2.03;;;4.20;99.90;;;;;;5038382;28;20935;-70
2023/01/19 06:42:53;;;;;;;10.63;1.77;;;4.00;99.90;;;;;;4995910;28;20445;-70
2023/01/19 06:45:18;;;;;;;12.40;2.07;;;3.50;99.90;;;;;;4994454;28;20492;-69
2023/01/19 06:47:46;;;;;;;7.83;1.73;;;3.50;99.90;;;;;;5002840;28;20448;-70
2023/01/19 06:50:12;;;;;;;16.77;3.15;;;4.00;99.90;;;;;;5010863;28;20721;-70
2023/01/19 06:52:41;;;;;;;15.77;2.25;;;4.00;99.90;;;;;;5002254;28;20442;-71
2023/01/19 06:55:09;;;;;;;13.27;3.00;;;4.00;99.90;;;;;;5002049;28;20425;-70
2023/01/19 06:57:37;;;;;;;17.13;3.10;;;3.50;99.90;;;;;;5009568;28;20421;-70
2023/01/19 07:00:07;;;;;;;13.57;2.10;;;3.80;99.90;;;;;;5009248;28;20832;-70
2023/01/19 07:02:39;;;;;;;17.83;3.60;;;3.80;99.90;;;;;;5009091;28;20819;-70
2023/01/19 07:05:07;;;;;;;15.10;3.92;;;3.90;99.90;;;;;;5010107;28;20868;-70
2023/01/19 07:07:33;;;;;;;9.88;2.30;;;3.90;99.90;;;;;;5005920;28;20439;-69
2023/01/19 07:09:59;;;;;;;17.70;2.23;;;4.10;99.90;;;;;;5006705;28;20421;-70
2023/01/19 07:12:24;;;;;;;14.07;3.83;;;4.10;99.90;;;;;;5006916;28;20820;-68
2023/01/19 07:14:51;;;;;;;17.20;2.03;;;4.00;99.90;;;;;;5009925;28;20423;-69
2023/01/19 07:17:17;;;;;;;10.75;1.98;;;3.80;99.90;;;;;;5008756;28;20924;-69
2023/01/19 07:19:43;;;;;;;11.13;2.95;;;4.20;99.90;;;;;;5009091;28;20460;-69
2023/01/19 07:22:08;;;;;;;12.67;2.00;;;4.10;99.90;;;;;;5039946;28;20471;-69
2023/01/19 07:24:35;;;;;;;13.53;1.93;;;4.10;99.90;;;;;;5036423;28;20441;-70
2023/01/19 07:27:01;;;;;;;14.57;2.35;;;4.20;99.90;;;;;;4997371;28;20857;-69
2023/01/19 07:29:27;;;;;;;24.52;3.45;;;3.70;99.90;;;;;;5011320;28;20452;-70
2023/01/19 07:31:53;;;;;;;11.73;2.50;;;4.10;99.90;;;;;;5004222;28;20425;-70
2023/01/19 07:34:20;;;;;;;16.20;3.33;;;4.10;99.90;;;;;;5006251;28;20795;-70
2023/01/19 07:36:46;;;;;;;13.20;2.10;;;4.20;99.90;;;;;;5009114;28;21080;-71
2023/01/19 07:39:12;;;;;;;12.63;2.20;;;4.20;99.90;;;;;;5006925;28;20508;-70
2023/01/19 07:41:38;;;;;;;19.20;2.63;;;4.20;99.90;;;;;;5006978;28;20795;-70
2023/01/19 07:44:03;;;;;;;16.67;3.53;;;3.70;99.90;;;;;;5011110;28;20578;-71
2023/01/19 07:46:29;;;;;;;16.70;3.17;;;3.60;99.90;;;;;;5004207;28;20920;-70
2023/01/19 07:48:55;;;;;;;28.55;3.78;;;4.00;99.90;;;;;;5005494;28;20433;-69
2023/01/19 07:51:20;;;;;;;15.65;2.55;;;3.70;99.90;;;;;;5009340;28;20417;-69
2023/01/19 07:53:49;;;;;;;14.80;3.17;;;3.80;99.90;;;;;;5023533;28;20441;-70
2023/01/19 07:56:15;;;;;;;15.20;3.40;;;3.70;99.90;;;;;;5009359;28;20421;-70
2023/01/19 07:58:40;;;;;;;15.48;3.72;;;3.90;99.90;;;;;;5019949;28;20450;-69
2023/01/19 08:01:11;;;;;;;19.45;3.60;;;3.40;99.90;;;;;;5006809;28;20437;-70
2023/01/19 08:03:37;;;;;;;17.10;2.90;;;3.80;99.90;;;;;;5022537;28;20436;-70
2023/01/19 08:06:04;;;;;;;18.58;3.45;;;3.60;99.90;;;;;;5040522;28;20439;-70
2023/01/19 08:08:31;;;;;;;14.25;2.83;;;3.50;99.90;;;;;;5005109;28;21797;-69
2023/01/19 08:10:57;;;;;;;17.38;3.55;;;3.70;99.90;;;;;;5035306;28;20428;-69
2023/01/19 08:13:22;;;;;;;21.57;5.60;;;3.80;99.90;;;;;;5038652;28;20443;-69
2023/01/19 08:15:50;;;;;;;17.40;4.20;;;3.40;99.90;;;;;;5005279;28;20424;-70
2023/01/19 08:18:16;;;;;;;19.00;4.80;;;3.30;99.90;;;;;;5034020;28;20570;-70
2023/01/19 08:20:42;;;;;;;14.88;4.13;;;3.40;99.90;;;;;;5023598;28;20413;-69
2023/01/19 08:23:08;;;;;;;24.23;4.50;;;3.60;99.90;;;;;;5002681;28;20440;-69
2023/01/19 08:25:43;;;;;;;15.90;2.83;;;3.50;99.90;;;;;;5008013;28;20416;-69
2023/01/19 08:28:09;;;;;;;20.70;3.75;;;3.40;99.90;;;;;;5006073;28;20452;-69
2023/01/19 08:30:36;;;;;;;23.10;5.28;;;3.70;99.90;;;;;;5010861;28;20878;-70
2023/01/19 08:33:06;;;;;;;24.30;4.97;;;3.50;99.90;;;;;;5008067;28;20456;-69
2023/01/19 08:35:36;;;;;;;15.77;3.08;;;3.70;99.90;;;;;;5008382;28;20419;-69
2023/01/19 08:38:06;;;;;;;16.42;3.35;;;3.40;99.90;;;;;;4988126;28;20447;-69
2023/01/19 08:40:34;;;;;;;22.23;4.25;;;3.80;99.90;;;;;;4996201;28;20433;-70
2023/01/19 08:43:07;;;;;;;21.35;4.55;;;3.30;99.90;;;;;;5018147;28;20433;-69
2023/01/19 08:45:35;;;;;;;27.00;4.18;;;3.30;99.90;;;;;;5039100;28;20449;-69
2023/01/19 08:48:01;;;;;;;20.98;4.63;;;3.30;99.90;;;;;;5006751;28;20432;-69
2023/01/19 08:50:28;;;;;;;31.95;5.05;;;3.60;99.90;;;;;;5006376;28;20508;-69
2023/01/19 08:53:01;;;;;;;21.35;3.90;;;3.50;99.90;;;;;;5020085;28;20433;-70
2023/01/19 08:55:28;;;;;;;21.50;3.80;;;3.30;99.90;;;;;;5010396;28;20439;-69
2023/01/19 08:57:56;;;;;;;17.75;3.85;;;3.60;99.90;;;;;;5004934;28;20474;-69
2023/01/19 09:00:24;;;;;;;23.98;4.50;;;3.50;99.90;;;;;;5006703;28;20416;-69
2023/01/19 09:02:50;;;;;;;20.43;4.07;;;3.40;99.90;;;;;;5005680;28;20573;-69
2023/01/19 09:05:16;;;;;;;21.88;4.18;;;3.60;99.90;;;;;;4999569;28;20437;-70
2023/01/19 09:07:48;;;;;;;24.27;4.78;;;3.40;99.90;;;;;;5005448;28;20444;-69
2023/01/19 09:10:15;;;;;;;22.83;4.28;;;3.30;99.90;;;;;;5022256;28;20462;-69
2023/01/19 09:12:42;;;;;;;18.13;2.85;;;3.70;99.90;;;;;;5009142;28;20424;-69
2023/01/19 09:15:09;;;;;;;18.67;3.67;;;3.70;99.90;;;;;;5007499;28;20436;-69
2023/01/19 09:17:35;;;;;;;22.07;3.97;;;3.40;99.90;;;;;;5007122;28;20410;-69
2023/01/19 09:20:03;;;;;;;22.67;4.80;;;3.50;99.90;;;;;;5005724;28;20914;-69
2023/01/19 09:22:28;;;;;;;19.60;3.40;;;3.40;99.90;;;;;;5004609;28;20432;-69
2023/01/19 09:24:54;;;;;;;20.92;3.38;;;3.80;99.90;;;;;;5037625;28;20460;-69
2023/01/19 09:27:20;;;;;;;16.63;3.13;;;3.70;99.90;;;;;;5006654;28;20827;-70
2023/01/19 09:29:51;;;;;;;21.73;4.57;;;3.90;99.90;;;;;;5031891;28;20825;-69
2023/01/19 09:32:18;;;;;;;18.35;4.22;;;4.00;99.90;;;;;;5004785;28;20527;-71
2023/01/19 09:34:44;;;;;;;18.58;4.63;;;4.20;99.90;;;;;;5007545;28;20496;-69
2023/01/19 09:37:10;;;;;;;15.83;3.40;;;4.00;99.90;;;;;;5007200;28;20509;-70
2023/01/19 09:39:35;;;;;;;20.53;3.80;;;4.00;99.90;;;;;;5015048;28;20415;-71
2023/01/19 09:42:28;;;;;;;20.50;3.90;;;4.00;99.90;;;;;;5030550;28;20438;-71
2023/01/19 09:44:53;;;;;;;17.50;3.70;;;4.10;99.90;;;;;;5013902;28;20457;-70
2023/01/19 09:47:23;;;;;;;22.87;4.63;;;4.40;99.90;;;;;;5041775;28;20451;-70
2023/01/19 09:49:57;;;;;;;16.63;2.92;;;4.20;99.90;;;;;;5026064;28;20456;-69
2023/01/19 09:52:23;;;;;;;15.15;2.95;;;4.40;99.90;;;;;;5008213;28;20437;-70
2023/01/19 09:54:52;;;;;;;14.85;4.00;;;4.40;99.90;;;;;;5025795;28;20429;-70
2023/01/19 09:57:19;;;;;;;14.93;2.67;;;4.30;99.90;;;;;;5011445;28;20466;-69
2023/01/19 09:59:47;;;;;;;21.98;3.05;;;4.50;99.90;;;;;;5004691;28;20470;-69
2023/01/19 10:02:22;;;;;;;16.27;3.40;;;4.60;99.90;;;;;;5007497;28;21011;-69
2023/01/19 10:05:23;;;;;;;16.05;3.13;;;4.60;99.90;;;;;;5005641;28;21283;-68
2023/01/19 10:08:10;;;;;;;12.50;2.58;;;4.40;99.90;;;;;;5024766;28;20468;-69
2023/01/19 10:10:41;;;;;;;11.30;3.15;;;4.50;99.90;;;;;;5041280;28;20946;-70
2023/01/19 10:13:25;;;;;;;15.20;2.22;;;4.60;99.90;;;;;;5006174;28;20444;-70
2023/01/19 10:16:06;;;;;;;12.50;2.40;;;4.60;99.90;;;;;;5017578;28;20515;-72
2023/01/19 10:18:47;;;;;;;15.98;3.83;;;6.20;99.90;;;;;;5039630;28;20424;-70
2023/01/19 10:21:38;;;;;;;20.00;4.50;;;4.70;99.90;;;;;;5006769;28;20436;-69
2023/01/19 10:24:14;;;;;;;10.93;2.65;;;4.80;99.90;;;;;;5003175;28;20844;-69
2023/01/19 10:27:02;;;;;;;12.77;2.08;;;4.70;99.90;;;;;;5010712;28;20495;-69
2023/01/19 10:29:37;;;;;;;14.75;2.00;;;4.80;99.90;;;;;;5006080;28;20472;-70
2023/01/19 10:32:11;;;;;;;9.88;2.70;;;5.40;99.90;;;;;;5009129;28;20478;-69
2023/01/19 10:34:37;;;;;;;11.32;1.85;;;4.80;99.90;;;;;;5008826;28;20436;-70
2023/01/19 10:37:21;;;;;;;12.93;3.00;;;4.80;99.90;;;;;;5009585;28;20420;-69
2023/01/19 10:39:53;;;;;;;15.68;2.95;;;4.90;99.90;;;;;;5001126;28;20425;-68
2023/01/19 10:42:19;;;;;;;12.40;2.85;;;5.00;99.90;;;;;;5025018;28;20412;-69
2023/01/19 10:44:44;;;;;;;10.20;2.10;;;5.00;99.90;;;;;;5003789;28;20822;-69
2023/01/19 10:47:18;;;;;;;20.17;2.25;;;5.00;99.90;;;;;;5025141;28;20431;-70
2023/01/19 10:49:44;;;;;;;11.27;1.63;;;5.70;99.90;;;;;;5006825;28;20482;-69
2023/01/19 10:52:32;;;;;;;10.87;2.63;;;5.00;99.90;;;;;;5025622;28;20884;-69
2023/01/19 10:55:00;;;;;;;13.98;3.47;;;5.00;99.90;;;;;;5009833;28;20467;-69
2023/01/19 10:57:35;;;;;;;18.45;3.20;;;5.10;99.90;;;;;;5009764;28;20400;-69
2023/01/19 11:00:03;;;;;;;12.33;2.67;;;5.10;99.90;;;;;;5023894;28;20447;-69
2023/01/19 11:02:30;;;;;;;11.88;2.20;;;5.20;99.90;;;;;;5006434;28;20487;-69
2023/01/19 11:04:59;;;;;;;11.38;1.98;;;5.20;99.90;;;;;;5009241;28;20490;-69
2023/01/19 11:07:32;;;;;;;14.55;2.45;;;5.30;99.90;;;;;;5038811;28;20512;-70
2023/01/19 11:10:16;;;;;;;10.90;1.98;;;5.30;99.90;;;;;;5003880;28;20429;-69
2023/01/19 11:12:45;;;;;;;12.20;2.08;;;5.30;99.90;;;;;;5009258;28;20506;-69
2023/01/19 11:15:20;;;;;;;10.87;2.60;;;5.50;99.90;;;;;;5048613;28;20434;-69
2023/01/19 11:17:49;;;;;;;8.38;1.48;;;5.30;99.90;;;;;;5003415;28;20421;-69
2023/01/19 11:20:49;;;;;;;6.70;1.42;;;5.40;99.90;;;;;;5005619;28;20420;-69
2023/01/19 11:23:24;;;;;;;11.73;1.95;;;5.50;99.90;;;;;;4977691;28;20448;-69
2023/01/19 11:25:54;;;;;;;10.48;2.47;;;5.40;99.90;;;;;;5007878;28;20464;-68
2023/01/19 11:28:33;;;;;;;12.07;2.40;;;6.00;99.90;;;;;;5002250;28;20478;-70
2023/01/19 11:31:00;;;;;;;9.10;1.60;;;5.50;99.90;;;;;;5024006;28;20425;-69
2023/01/19 11:33:34;;;;;;;8.98;1.80;;;5.60;99.90;;;;;;5037909;28;20436;-71
2023/01/19 11:36:15;;;;;;;8.75;1.70;;;5.50;99.90;;;;;;5023997;28;20436;-69
2023/01/19 11:38:43;;;;;;;8.88;1.73;;;5.60;99.90;;;;;;5001424;28;20468;-69
2023/01/19 11:41:20;;;;;;;11.85;1.77;;;5.60;99.90;;;;;;5006979;28;20441;-68
2023/01/19 11:43:50;;;;;;;8.82;2.60;;;5.60;99.90;;;;;;5028631;28;20426;-69
2023/01/19 11:46:17;;;;;;;6.72;1.77;;;5.70;99.90;;;;;;5000425;28;20428;-69
2023/01/19 11:48:56;;;;;;;9.80;2.00;;;5.70;99.90;;;;;;5007462;28;20460;-68
2023/01/19 11:51:25;;;;;;;14.45;1.85;;;5.90;99.90;;;;;;5022280;28;20779;-68
2023/01/19 11:53:52;;;;;;;12.90;2.10;;;5.90;99.90;;;;;;5018592;28;20443;-68
2023/01/19 11:56:22;;;;;;;7.47;1.75;;;5.80;99.90;;;;;;5023121;28;20443;-69
2023/01/19 11:58:48;;;;;;;12.82;1.75;;;5.90;99.90;;;;;;5023288;28;20508;-69
2023/01/19 12:01:32;;;;;;;15.07;2.70;;;6.00;99.90;;;;;;5022801;28;20436;-69
2023/01/19 12:04:03;;;;;;;10.27;1.70;;;6.10;99.90;;;;;;5009337;28;20432;-69
2023/01/19 12:06:40;;;;;;;8.50;1.88;;;6.10;99.90;;;;;;4990052;28;20433;-69
2023/01/19 12:09:09;;;;;;;10.23;1.63;;;6.20;99.90;;;;;;5008150;28;20472;-69
2023/01/19 12:11:47;;;;;;;8.38;1.38;;;6.40;99.90;;;;;;5026487;28;20426;-70
2023/01/19 12:14:25;;;;;;;4.65;1.02;;;6.30;99.90;;;;;;4992023;28;20421;-70
2023/01/19 12:16:55;;;;;;;11.48;2.00;;;6.10;99.90;;;;;;5020182;28;20437;-69
2023/01/19 12:19:28;;;;;;;6.93;1.55;;;6.10;99.90;;;;;;4999904;28;20425;-70
2023/01/19 12:21:54;;;;;;;7.57;1.05;;;6.40;99.90;;;;;;5002313;28;20929;-69
2023/01/19 12:24:34;;;;;;;4.30;0.60;;;6.40;99.90;;;;;;5007529;28;20423;-69
2023/01/19 12:27:21;;;;;;;7.57;1.65;;;6.20;99.90;;;;;;5020937;28;20499;-70
2023/01/19 12:29:47;;;;;;;10.82;1.88;;;6.20;99.90;;;;;;5007878;28;20787;-68
2023/01/19 12:32:12;;;;;;;8.98;1.25;;;6.00;99.90;;;;;;5019754;28;20428;-69
2023/01/19 12:34:41;;;;;;;8.43;2.33;;;5.90;99.90;;;;;;5005027;28;20432;-69
2023/01/19 12:37:29;;;;;;;5.72;1.00;;;5.90;99.90;;;;;;5022446;28;20428;-68
2023/01/19 12:40:17;;;;;;;5.22;1.20;;;5.70;99.90;;;;;;5009417;28;20401;-69
2023/01/19 12:42:57;;;;;;;8.82;2.60;;;5.60;99.90;;;;;;5040302;28;20492;-68
2023/01/19 12:45:28;;;;;;;5.25;1.25;;;5.80;99.90;;;;;;5013506;28;20424;-69
2023/01/19 12:47:55;;;;;;;5.33;1.20;;;5.90;99.90;;;;;;5005911;28;20511;-69
2023/01/19 12:50:24;;;;;;;6.23;1.10;;;5.90;99.90;;;;;;5042244;28;20518;-72
2023/01/19 12:52:57;;;;;;;8.82;1.67;;;6.10;99.90;;;;;;5024293;28;20444;-71
2023/01/19 12:55:32;;;;;;;14.47;2.17;;;5.80;99.90;;;;;;5005594;28;20429;-70
2023/01/19 12:58:00;;;;;;;7.32;1.30;;;5.70;99.90;;;;;;5023131;28;20483;-69
2023/01/19 13:00:32;;;;;;;8.50;1.45;;;5.70;99.90;;;;;;5039646;28;21015;-70
2023/01/19 13:03:23;;;;;;;9.00;1.58;;;5.70;99.90;;;;;;4988428;28;20855;-70
2023/01/19 13:05:58;;;;;;;10.57;1.33;;;5.60;99.90;;;;;;4979014;28;20576;-71
2023/01/19 13:08:48;;;;;;;10.37;1.50;;;5.80;99.90;;;;;;5007389;28;20471;-72
2023/01/19 13:11:16;;;;;;;10.70;2.20;;;5.60;99.90;;;;;;4998277;28;20432;-70
2023/01/19 13:13:42;;;;;;;13.40;2.60;;;5.40;99.90;;;;;;5007324;28;20437;-70
2023/01/19 13:16:34;;;;;;;6.72;1.70;;;5.30;99.90;;;;;;4996347;28;20421;-71